createdAt,value
2018-08-21T05:49:40.016Z,3672
2018-08-21T05:50:09.916Z,3684
2018-08-21T05:51:10.153Z,3724
2018-08-21T05:52:09.922Z,3764
2018-08-21T05:53:10.221Z,3816
2018-08-21T05:54:10.180Z,3888
2018-08-21T05:55:10.563Z,4036
2018-08-21T05:56:09.955Z,4408
2018-08-21T05:57:09.920Z,4664
2018-08-21T05:58:09.675Z,4856
2018-08-21T05:59:09.941Z,4668
2018-08-21T06:00:11.680Z,7236
2018-08-21T06:01:09.681Z,7660
2018-08-21T06:02:10.198Z,8368
2018-08-21T06:03:10.186Z,8460
2018-08-21T06:04:09.439Z,8688
2018-08-21T06:05:11.070Z,8676
2018-08-21T06:06:09.944Z,8724
2018-08-21T06:07:09.694Z,8440
2018-08-21T06:08:10.100Z,8496
2018-08-21T06:09:09.971Z,8176
2018-08-21T06:10:10.070Z,8040
2018-08-21T06:11:09.470Z,8016
2018-08-21T06:12:09.980Z,8024
2018-08-21T06:13:09.723Z,8164
2018-08-21T06:14:09.877Z,8464
2018-08-21T06:15:09.654Z,8652
2018-08-21T06:16:09.737Z,8560
2018-08-21T06:17:09.744Z,8464
2018-08-21T06:18:09.754Z,8460
2018-08-21T06:19:10.058Z,8584
2018-08-21T06:20:10.343Z,8736
2018-08-21T06:21:09.766Z,8948
2018-08-21T06:22:09.505Z,9032
2018-08-21T06:23:09.763Z,9228
2018-08-21T06:24:09.772Z,9400
2018-08-21T06:25:10.165Z,9736
2018-08-21T06:26:10.030Z,10052
2018-08-21T06:27:10.052Z,10352
2018-08-21T06:28:10.053Z,10644
2018-08-21T06:29:10.075Z,10592
2018-08-21T06:30:09.911Z,10872
2018-08-21T06:31:10.061Z,10968
2018-08-21T06:32:10.436Z,11044
2018-08-21T06:33:10.074Z,10888
2018-08-21T06:34:10.339Z,10112
2018-08-21T06:35:09.852Z,8800
2018-08-21T06:36:10.309Z,9020
2018-08-21T06:37:10.137Z,10512
2018-08-21T06:38:10.229Z,9748
2018-08-21T06:39:10.108Z,10632
2018-08-21T06:40:10.310Z,8600
2018-08-21T06:41:10.402Z,9612
2018-08-21T06:42:10.144Z,10880
2018-08-21T06:43:10.422Z,7956
2018-08-21T06:44:09.917Z,10408
2018-08-21T06:45:10.446Z,9284
2018-08-21T06:46:09.913Z,8348
2018-08-21T06:47:09.957Z,10720
2018-08-21T06:48:09.667Z,12604
2018-08-21T06:49:10.446Z,12560
2018-08-21T06:50:11.562Z,11292
2018-08-21T06:51:09.697Z,10776
2018-08-21T06:52:09.947Z,12612
2018-08-21T06:53:10.630Z,12252
2018-08-21T06:54:09.996Z,12760
2018-08-21T06:55:10.259Z,12932
2018-08-21T06:56:10.011Z,12864
2018-08-21T06:57:10.503Z,12452
2018-08-21T06:58:09.992Z,13256
2018-08-21T06:59:09.997Z,13360
2018-08-21T07:00:10.203Z,13256
2018-08-21T07:01:10.017Z,13452
2018-08-21T07:02:10.535Z,13376
2018-08-21T07:03:10.028Z,11656
2018-08-21T07:04:10.316Z,11116
2018-08-21T07:05:10.199Z,10552
2018-08-21T07:06:10.052Z,9536
2018-08-21T07:07:10.568Z,9196
2018-08-21T07:08:10.322Z,10544
2018-08-21T07:09:10.585Z,10880
2018-08-21T07:10:10.534Z,11740
2018-08-21T07:11:10.346Z,10264
2018-08-21T07:12:10.079Z,12136
2018-08-21T07:13:09.830Z,13012
2018-08-21T07:14:09.857Z,10120
2018-08-21T07:15:10.662Z,10320
2018-08-21T07:16:10.114Z,9100
2018-08-21T07:17:10.648Z,8684
2018-08-21T07:18:10.387Z,8344
2018-08-21T07:19:10.697Z,7984
2018-08-21T07:20:10.157Z,7788
2018-08-21T07:21:10.189Z,7828
2018-08-21T07:22:10.533Z,7996
2018-08-21T07:23:10.424Z,8232
2018-08-21T07:24:10.696Z,8476
2018-08-21T07:25:10.573Z,8708
2018-08-21T07:26:10.174Z,8856
2018-08-21T07:27:10.202Z,8892
2018-08-21T07:28:10.239Z,8924
2018-08-21T07:29:11.034Z,9012
2018-08-21T07:30:10.531Z,8908
2018-08-21T07:31:09.959Z,8896
2018-08-21T07:32:10.227Z,8876
2018-08-21T07:33:10.731Z,8856
2018-08-21T07:34:10.742Z,8908
2018-08-21T07:35:10.523Z,8956
2018-08-21T07:36:10.769Z,8888
2018-08-21T07:37:10.524Z,8780
2018-08-21T07:38:10.513Z,8736
2018-08-21T07:39:10.523Z,8776
2018-08-21T07:40:11.002Z,8948
2018-08-21T07:41:10.264Z,9536
2018-08-21T07:42:10.787Z,9256
2018-08-21T07:43:10.792Z,9440
2018-08-21T07:44:10.043Z,9712
2018-08-21T07:45:10.955Z,10808
2018-08-21T07:46:10.558Z,10104
2018-08-21T07:47:10.833Z,10520
2018-08-21T07:48:10.823Z,11380
2018-08-21T07:49:10.583Z,10312
2018-08-21T07:50:10.919Z,10156
2018-08-21T07:51:10.827Z,10152
2018-08-21T07:52:10.874Z,10008
2018-08-21T07:53:10.818Z,10008
2018-08-21T07:54:10.907Z,10016
2018-08-21T07:55:10.372Z,9956
2018-08-21T07:56:10.608Z,9808
2018-08-21T07:57:10.615Z,9664
2018-08-21T07:58:10.924Z,9560
2018-08-21T07:59:10.380Z,9516
2018-08-21T08:00:10.732Z,9616
2018-08-21T08:01:10.631Z,12676
2018-08-21T08:02:10.382Z,9400
2018-08-21T08:03:10.906Z,9160
2018-08-21T08:04:11.431Z,9332
2018-08-21T08:05:10.839Z,9028
2018-08-21T08:06:10.986Z,8804
2018-08-21T08:07:10.677Z,8628
2018-08-21T08:08:10.791Z,8320
2018-08-21T08:09:10.699Z,8296
2018-08-21T08:10:10.643Z,8560
2018-08-21T08:11:10.947Z,8624
2018-08-21T08:12:10.434Z,7952
2018-08-21T08:13:10.756Z,7880
2018-08-21T08:14:11.748Z,8032
2018-08-21T08:15:10.841Z,8316
2018-08-21T08:16:10.737Z,11672
2018-08-21T08:17:10.456Z,8848
2018-08-21T08:18:10.723Z,8708
2018-08-21T08:19:11.118Z,8904
2018-08-21T08:20:11.018Z,8948
2018-08-21T08:21:11.789Z,9224
2018-08-21T08:22:10.502Z,13364
2018-08-21T08:23:11.586Z,10332
2018-08-21T08:24:10.500Z,10944
2018-08-21T08:25:10.905Z,11072
2018-08-21T08:26:10.789Z,13128
2018-08-21T08:27:10.778Z,10692
2018-08-21T08:28:11.080Z,10456
2018-08-21T08:29:11.132Z,13416
2018-08-21T08:30:10.923Z,11664
2018-08-21T08:31:10.798Z,13668
2018-08-21T08:32:11.092Z,10616
2018-08-21T08:33:10.617Z,12240
2018-08-21T08:34:10.842Z,12932
2018-08-21T08:35:10.895Z,10768
2018-08-21T08:36:10.840Z,10780
2018-08-21T08:37:10.577Z,10788
2018-08-21T08:38:11.095Z,11064
2018-08-21T08:39:10.853Z,12368
2018-08-21T08:40:10.796Z,11296
2018-08-21T08:41:10.879Z,10552
2018-08-21T08:42:10.805Z,12400
2018-08-21T08:43:11.136Z,12276
2018-08-21T08:44:11.147Z,12968
2018-08-21T08:45:10.408Z,12988
2018-08-21T08:46:11.148Z,12428
2018-08-21T08:47:10.899Z,11128
2018-08-21T08:48:10.926Z,11824
2018-08-21T08:49:10.662Z,12944
2018-08-21T08:50:11.043Z,9480
2018-08-21T08:51:11.070Z,12832
2018-08-21T08:52:10.397Z,12520
2018-08-21T08:53:11.196Z,12264
2018-08-21T08:54:10.968Z,12096
2018-08-21T08:55:10.898Z,11932
2018-08-21T08:56:10.961Z,11880
2018-08-21T08:57:10.708Z,11536
2018-08-21T08:58:10.703Z,11488
2018-08-21T08:59:11.033Z,11280
2018-08-21T09:00:10.918Z,11116
2018-08-21T09:01:11.008Z,10980
2018-08-21T09:02:10.757Z,10840
2018-08-21T09:03:11.009Z,10668
2018-08-21T09:04:11.254Z,10632
2018-08-21T09:05:11.133Z,10648
2018-08-21T09:06:10.755Z,10700
2018-08-21T09:07:10.753Z,10844
2018-08-21T09:08:11.290Z,10936
2018-08-21T09:09:11.191Z,10896
2018-08-21T09:10:11.557Z,10900
2018-08-21T09:11:11.052Z,10908
2018-08-21T09:12:11.319Z,10748
2018-08-21T09:13:11.077Z,10644
2018-08-21T09:14:11.090Z,10476
2018-08-21T09:15:11.173Z,10404
2018-08-21T09:16:10.568Z,10320
2018-08-21T09:17:11.332Z,10248
2018-08-21T09:18:10.830Z,10196
2018-08-21T09:19:10.850Z,10196
2018-08-21T09:20:10.976Z,10188
2018-08-21T09:21:12.690Z,10164
2018-08-21T09:22:10.847Z,10184
2018-08-21T09:23:11.344Z,10212
2018-08-21T09:24:10.871Z,10196
2018-08-21T09:25:11.233Z,10104
2018-08-21T09:26:11.135Z,10044
2018-08-21T09:27:10.879Z,10012
2018-08-21T09:28:11.170Z,10048
2018-08-21T09:29:11.154Z,9976
2018-08-21T09:30:11.334Z,9944
2018-08-21T09:31:11.419Z,9892
2018-08-21T09:32:11.159Z,9912
2018-08-21T09:33:11.179Z,9964
2018-08-21T09:34:11.178Z,9968
2018-08-21T09:35:11.757Z,9988
2018-08-21T09:36:11.179Z,10008
2018-08-21T09:37:10.924Z,10036
2018-08-21T09:38:11.385Z,10008
2018-08-21T09:39:11.200Z,9992
2018-08-21T09:40:11.074Z,9948
2018-08-21T09:41:11.480Z,9916
2018-08-21T09:42:11.236Z,9876
2018-08-21T09:43:10.984Z,9880
2018-08-21T09:44:10.729Z,9876
2018-08-21T09:45:11.109Z,9828
2018-08-21T09:46:10.988Z,9764
2018-08-21T09:47:11.298Z,9652
2018-08-21T09:48:11.240Z,9576
2018-08-21T09:49:11.251Z,9568
2018-08-21T09:50:11.823Z,9448
2018-08-21T09:51:11.311Z,9384
2018-08-21T09:52:10.748Z,9280
2018-08-21T09:53:11.400Z,9188
2018-08-21T09:54:11.293Z,9064
2018-08-21T09:55:11.428Z,9036
2018-08-21T09:56:11.041Z,8960
2018-08-21T09:57:11.047Z,8828
2018-08-21T09:58:11.295Z,8776
2018-08-21T09:59:11.066Z,8688
2018-08-21T10:00:11.662Z,8624
2018-08-21T10:01:11.306Z,8604
2018-08-21T10:02:11.438Z,8564
2018-08-21T10:03:11.319Z,8532
2018-08-21T10:04:11.604Z,8484
2018-08-21T10:05:10.937Z,8460
2018-08-21T10:06:11.344Z,8412
2018-08-21T10:07:11.345Z,8400
2018-08-21T10:08:11.347Z,8324
2018-08-21T10:09:11.112Z,8288
2018-08-21T10:10:11.446Z,8244
2018-08-21T10:11:11.108Z,8224
2018-08-21T10:12:10.854Z,8152
2018-08-21T10:13:11.606Z,8144
2018-08-21T10:14:11.365Z,8152
2018-08-21T10:15:11.214Z,8132
2018-08-21T10:16:11.129Z,8104
2018-08-21T10:17:11.141Z,8088
2018-08-21T10:18:11.423Z,8068
2018-08-21T10:19:11.708Z,8036
2018-08-21T10:20:11.813Z,8044
2018-08-21T10:21:11.680Z,7968
2018-08-21T10:22:11.175Z,7964
2018-08-21T10:23:11.426Z,7956
2018-08-21T10:24:11.446Z,7976
2018-08-21T10:25:11.435Z,7968
2018-08-21T10:26:11.427Z,7972
2018-08-21T10:27:11.442Z,7992
2018-08-21T10:28:11.445Z,7976
2018-08-21T10:29:11.459Z,8000
2018-08-21T10:30:11.477Z,8044
2018-08-21T10:31:10.965Z,8044
2018-08-21T10:32:11.501Z,8044
2018-08-21T10:33:11.744Z,8048
2018-08-21T10:34:11.732Z,8056
2018-08-21T10:35:11.936Z,8036
2018-08-21T10:36:11.756Z,7984
2018-08-21T10:37:11.512Z,7924
2018-08-21T10:38:11.778Z,7916
2018-08-21T10:39:11.534Z,7924
2018-08-21T10:40:11.526Z,7960
2018-08-21T10:41:11.801Z,8004
2018-08-21T10:42:11.286Z,8076
2018-08-21T10:43:11.570Z,8064
2018-08-21T10:44:11.544Z,8196
2018-08-21T10:45:11.657Z,8300
2018-08-21T10:46:11.817Z,8364
2018-08-21T10:47:11.820Z,8404
2018-08-21T10:48:11.301Z,8440
2018-08-21T10:49:11.582Z,8512
2018-08-21T10:50:11.613Z,8496
2018-08-21T10:51:11.827Z,8440
2018-08-21T10:52:12.117Z,8112
2018-08-21T10:53:11.843Z,8624
2018-08-21T10:54:11.850Z,8796
2018-08-21T10:55:11.605Z,8952
2018-08-21T10:56:11.612Z,8932
2018-08-21T10:57:11.606Z,8884
2018-08-21T10:58:11.350Z,8912
2018-08-21T10:59:11.360Z,8960
2018-08-21T11:00:11.924Z,9088
2018-08-21T11:01:11.642Z,9124
2018-08-21T11:02:11.747Z,9104
2018-08-21T11:03:11.656Z,9208
2018-08-21T11:04:11.148Z,9536
2018-08-21T11:05:11.658Z,9904
2018-08-21T11:06:11.661Z,10216
2018-08-21T11:07:11.931Z,10416
2018-08-21T11:08:11.935Z,10572
2018-08-21T11:09:11.689Z,10544
2018-08-21T11:10:11.174Z,10300
2018-08-21T11:11:11.951Z,10100
2018-08-21T11:12:11.452Z,9916
2018-08-21T11:13:11.727Z,9688
2018-08-21T11:14:11.971Z,9580
2018-08-21T11:15:11.461Z,9488
2018-08-21T11:16:11.464Z,9348
2018-08-21T11:17:11.482Z,9232
2018-08-21T11:18:12.295Z,9180
2018-08-21T11:19:11.751Z,9128
2018-08-21T11:20:11.565Z,9064
2018-08-21T11:21:12.130Z,9024
2018-08-21T11:22:11.932Z,9028
2018-08-21T11:23:11.774Z,9136
2018-08-21T11:24:12.430Z,9236
2018-08-21T11:25:11.525Z,9336
2018-08-21T11:26:11.772Z,9408
2018-08-21T11:27:11.790Z,9412
2018-08-21T11:28:12.043Z,9452
2018-08-21T11:29:11.548Z,9484
2018-08-21T11:30:11.872Z,9604
2018-08-21T11:31:11.814Z,9696
2018-08-21T11:32:11.820Z,9812
2018-08-21T11:33:12.085Z,9836
2018-08-21T11:34:11.834Z,9880
2018-08-21T11:35:11.956Z,9904
2018-08-21T11:36:11.595Z,9736
2018-08-21T11:37:11.585Z,9448
2018-08-21T11:38:11.976Z,9448
2018-08-21T11:39:11.872Z,9512
2018-08-21T11:40:11.482Z,9584
2018-08-21T11:41:11.611Z,9532
2018-08-21T11:42:11.872Z,9352
2018-08-21T11:43:11.902Z,9172
2018-08-21T11:44:11.610Z,8992
2018-08-21T11:45:11.942Z,8908
2018-08-21T11:46:11.632Z,8960
2018-08-21T11:47:11.647Z,8956
2018-08-21T11:48:12.544Z,8888
2018-08-21T11:49:12.162Z,8792
2018-08-21T11:50:12.033Z,8716
2018-08-21T11:51:11.668Z,8624
2018-08-21T11:52:13.788Z,8552
2018-08-21T11:53:11.958Z,8444
2018-08-21T11:54:11.945Z,8340
2018-08-21T11:55:11.815Z,8196
2018-08-21T11:56:11.968Z,8148
2018-08-21T11:57:12.250Z,8168
2018-08-21T11:58:11.716Z,8188
2018-08-21T11:59:12.243Z,8204
2018-08-21T12:00:12.145Z,8140
2018-08-21T12:01:12.261Z,8140
2018-08-21T12:02:11.498Z,8124
2018-08-21T12:03:11.739Z,8148
2018-08-21T12:04:12.014Z,7980
2018-08-21T12:05:12.216Z,7648
2018-08-21T12:06:12.269Z,7392
2018-08-21T12:07:12.287Z,7888
2018-08-21T12:08:12.282Z,7972
2018-08-21T12:09:11.911Z,7832
2018-08-21T12:10:11.955Z,7640
2018-08-21T12:11:12.316Z,7508
2018-08-21T12:12:12.333Z,7396
2018-08-21T12:13:12.318Z,7312
2018-08-21T12:14:11.817Z,7264
2018-08-21T12:15:11.874Z,7196
2018-08-21T12:16:12.076Z,7120
2018-08-21T12:17:12.100Z,7012
2018-08-21T12:18:12.346Z,6924
2018-08-21T12:19:11.843Z,6860
2018-08-21T12:20:12.316Z,6844
2018-08-21T12:21:12.365Z,6856
2018-08-21T12:22:11.857Z,6908
2018-08-21T12:23:12.117Z,7016
2018-08-21T12:24:11.859Z,7120
2018-08-21T12:25:12.329Z,7160
2018-08-21T12:26:12.129Z,7144
2018-08-21T12:27:12.129Z,7116
2018-08-21T12:28:11.644Z,7096
2018-08-21T12:29:12.428Z,7084
2018-08-21T12:30:12.296Z,7008
2018-08-21T12:31:12.414Z,6968
2018-08-21T12:32:12.490Z,6952
2018-08-21T12:33:12.458Z,6944
2018-08-21T12:34:12.040Z,7012
2018-08-21T12:35:11.943Z,7084
2018-08-21T12:36:11.938Z,7108
2018-08-21T12:37:11.992Z,7112
2018-08-21T12:38:12.561Z,7120
2018-08-21T12:39:12.219Z,7108
2018-08-21T12:40:12.260Z,7116
2018-08-21T12:41:11.959Z,7144
2018-08-21T12:42:12.516Z,7096
2018-08-21T12:43:12.003Z,7008
2018-08-21T12:44:12.525Z,6932
2018-08-21T12:45:12.518Z,6844
2018-08-21T12:46:11.982Z,6760
2018-08-21T12:47:12.254Z,6676
2018-08-21T12:48:12.245Z,6556
2018-08-21T12:49:12.274Z,6440
2018-08-21T12:50:12.515Z,6352
2018-08-21T12:51:12.541Z,6316
2018-08-21T12:52:12.045Z,6280
2018-08-21T12:53:12.564Z,6248
2018-08-21T12:54:12.553Z,6236
2018-08-21T12:55:12.471Z,6208
2018-08-21T12:56:12.318Z,6152
2018-08-21T12:57:12.565Z,6120
2018-08-21T12:58:12.580Z,6088
2018-08-21T12:59:12.608Z,6084
2018-08-21T13:00:12.704Z,6092
2018-08-21T13:01:12.354Z,6100
2018-08-21T13:02:12.346Z,6088
2018-08-21T13:03:11.857Z,6088
2018-08-21T13:04:12.636Z,6052
2018-08-21T13:05:12.728Z,6064
2018-08-21T13:06:12.362Z,6060
2018-08-21T13:07:12.118Z,6064
2018-08-21T13:08:12.382Z,6036
2018-08-21T13:09:12.404Z,6032
2018-08-21T13:10:12.282Z,6060
2018-08-21T13:11:12.393Z,6168
2018-08-21T13:12:12.406Z,6240
2018-08-21T13:13:12.168Z,6280
2018-08-21T13:14:12.398Z,6316
2018-08-21T13:15:12.508Z,6284
2018-08-21T13:16:12.176Z,6264
2018-08-21T13:17:12.422Z,6256
2018-08-21T13:18:12.438Z,6184
2018-08-21T13:19:12.448Z,6164
2018-08-21T13:20:12.408Z,6124
2018-08-21T13:21:12.459Z,5988
2018-08-21T13:22:12.454Z,5872
2018-08-21T13:23:12.466Z,5824
2018-08-21T13:24:12.740Z,5836
2018-08-21T13:25:12.558Z,5828
2018-08-21T13:26:12.469Z,5776
2018-08-21T13:27:12.479Z,5732
2018-08-21T13:28:12.738Z,5724
2018-08-21T13:29:12.858Z,5732
2018-08-21T13:30:12.780Z,5740
2018-08-21T13:31:12.252Z,5744
2018-08-21T13:32:12.515Z,5736
2018-08-21T13:33:12.249Z,5708
2018-08-21T13:34:12.798Z,5648
2018-08-21T13:35:12.987Z,5612
2018-08-21T13:36:12.778Z,5600
2018-08-21T13:37:13.047Z,5604
2018-08-21T13:38:12.288Z,5604
2018-08-21T13:39:12.834Z,5592
2018-08-21T13:40:13.050Z,5596
2018-08-21T13:41:12.565Z,5600
2018-08-21T13:42:12.566Z,5596
2018-08-21T13:43:12.826Z,5608
2018-08-21T13:44:12.782Z,5624
2018-08-21T13:45:12.799Z,5640
2018-08-21T13:46:12.328Z,5636
2018-08-21T13:47:12.592Z,5620
2018-08-21T13:48:12.609Z,5620
2018-08-21T13:49:12.604Z,5672
2018-08-21T13:50:12.508Z,5736
2018-08-21T13:51:12.883Z,5828
2018-08-21T13:52:13.153Z,5956
2018-08-21T13:53:12.631Z,5992
2018-08-21T13:54:12.909Z,6008
2018-08-21T13:55:12.885Z,6032
2018-08-21T13:56:12.642Z,5976
2018-08-21T13:57:12.400Z,5876
2018-08-21T13:58:12.421Z,5772
2018-08-21T13:59:12.425Z,5664
2018-08-21T14:00:12.511Z,5656
2018-08-21T14:01:12.658Z,5632
2018-08-21T14:02:12.158Z,5600
2018-08-21T14:03:12.427Z,5536
2018-08-21T14:04:12.726Z,5492
2018-08-21T14:05:12.454Z,5484
2018-08-21T14:06:12.451Z,5472
2018-08-21T14:07:12.447Z,5488
2018-08-21T14:08:12.469Z,5476
2018-08-21T14:09:12.729Z,5492
2018-08-21T14:10:13.203Z,5472
2018-08-21T14:11:13.026Z,5460
2018-08-21T14:12:12.481Z,5444
2018-08-21T14:13:13.252Z,5432
2018-08-21T14:14:12.495Z,5424
2018-08-21T14:15:13.224Z,5404
2018-08-21T14:16:12.746Z,5408
2018-08-21T14:17:13.030Z,5388
2018-08-21T14:18:12.789Z,5376
2018-08-21T14:19:12.795Z,5368
2018-08-21T14:20:13.466Z,5348
2018-08-21T14:21:13.057Z,5304
2018-08-21T14:22:12.565Z,5300
2018-08-21T14:23:13.135Z,5284
2018-08-21T14:24:12.548Z,5268
2018-08-21T14:25:13.127Z,5252
2018-08-21T14:26:13.097Z,5236
2018-08-21T14:27:12.303Z,5232
2018-08-21T14:28:13.485Z,5236
2018-08-21T14:29:13.255Z,5240
2018-08-21T14:30:12.858Z,5224
2018-08-21T14:31:13.123Z,5216
2018-08-21T14:32:12.589Z,5220
2018-08-21T14:33:13.123Z,5224
2018-08-21T14:34:12.665Z,5228
2018-08-21T14:35:12.946Z,5220
2018-08-21T14:36:12.611Z,5212
2018-08-21T14:37:12.883Z,5212
2018-08-21T14:38:12.624Z,5216
2018-08-21T14:39:13.018Z,5216
2018-08-21T14:40:13.185Z,5204
2018-08-21T14:41:12.648Z,5192
2018-08-21T14:42:13.180Z,5184
2018-08-21T14:43:12.654Z,5180
2018-08-21T14:44:13.191Z,5168
2018-08-21T14:45:13.525Z,5164
2018-08-21T14:46:13.978Z,5156
2018-08-21T14:47:12.952Z,5144
2018-08-21T14:48:12.697Z,5140
2018-08-21T14:49:13.234Z,5140
2018-08-21T14:50:13.510Z,5124
2018-08-21T14:51:13.328Z,5112
2018-08-21T14:52:13.027Z,5108
2018-08-21T14:53:13.399Z,5100
2018-08-21T14:54:13.029Z,5092
2018-08-21T14:55:13.339Z,5080
2018-08-21T14:56:13.035Z,5076
2018-08-21T14:57:13.253Z,5076
2018-08-21T14:58:13.392Z,5068
2018-08-21T14:59:12.753Z,5068
2018-08-21T15:00:13.424Z,5064
2018-08-21T15:01:13.081Z,5064
2018-08-21T15:02:13.081Z,5068
2018-08-21T15:03:13.309Z,5060
2018-08-21T15:04:13.071Z,5064
2018-08-21T15:05:12.939Z,5064
2018-08-21T15:06:12.775Z,5064
2018-08-21T15:07:13.085Z,5056
2018-08-21T15:08:13.067Z,5048
2018-08-21T15:09:12.537Z,5040
2018-08-21T15:10:13.601Z,5032
2018-08-21T15:11:13.186Z,5036
2018-08-21T15:12:13.117Z,5036
2018-08-21T15:13:13.081Z,5032
2018-08-21T15:14:13.358Z,5036
2018-08-21T15:15:13.160Z,5044
2018-08-21T15:16:13.153Z,5068
2018-08-21T15:17:13.093Z,5068
2018-08-21T15:18:13.134Z,5044
2018-08-21T15:19:13.151Z,5016
2018-08-21T15:20:13.365Z,5000
2018-08-21T15:21:13.135Z,4992
2018-08-21T15:22:13.342Z,4988
2018-08-21T15:23:13.952Z,4984
2018-08-21T15:24:13.399Z,4980
2018-08-21T15:25:13.340Z,4984
2018-08-21T15:26:13.407Z,4996
2018-08-21T15:27:13.172Z,5008
2018-08-21T15:28:13.178Z,5008
2018-08-21T15:29:13.449Z,5004
2018-08-21T15:30:13.291Z,5004
2018-08-21T15:31:12.948Z,5000
2018-08-21T15:32:13.192Z,4988
2018-08-21T15:33:13.301Z,4980
2018-08-21T15:34:13.249Z,4972
2018-08-21T15:35:13.490Z,4956
2018-08-21T15:36:13.348Z,4948
2018-08-21T15:37:13.244Z,4936
2018-08-21T15:38:13.000Z,4928
2018-08-21T15:39:13.573Z,4928
2018-08-21T15:40:12.840Z,4920
2018-08-21T15:41:13.590Z,4908
2018-08-21T15:42:13.503Z,4900
2018-08-21T15:43:13.070Z,4900
2018-08-21T15:44:13.744Z,4896
2018-08-21T15:45:13.732Z,4896
2018-08-21T15:46:13.525Z,4888
2018-08-21T15:47:12.786Z,4896
2018-08-21T15:48:12.816Z,4900
2018-08-21T15:49:13.063Z,4900
2018-08-21T15:50:14.109Z,4900
2018-08-21T15:51:13.331Z,4904
2018-08-21T15:52:13.321Z,4904
2018-08-21T15:53:13.663Z,4896
2018-08-21T15:54:13.348Z,4876
2018-08-21T15:55:13.665Z,4864
2018-08-21T15:56:13.075Z,4852
2018-08-21T15:57:13.085Z,4836
2018-08-21T15:58:13.386Z,4828
2018-08-21T15:59:13.363Z,4816
2018-08-21T16:00:13.583Z,4804
2018-08-21T16:01:13.616Z,4800
2018-08-21T16:02:13.693Z,4780
2018-08-21T16:03:13.094Z,4772
2018-08-21T16:04:13.151Z,4764
2018-08-21T16:05:13.688Z,4760
2018-08-21T16:06:12.877Z,4756
2018-08-21T16:07:13.383Z,4748
2018-08-21T16:08:13.414Z,4732
2018-08-21T16:09:13.765Z,4720
2018-08-21T16:10:13.071Z,4712
2018-08-21T16:11:13.312Z,4696
2018-08-21T16:12:13.467Z,4684
2018-08-21T16:13:13.465Z,4668
2018-08-21T16:14:13.523Z,4648
2018-08-21T16:15:13.752Z,4632
2018-08-21T16:16:13.428Z,4620
2018-08-21T16:17:13.451Z,4616
2018-08-21T16:18:13.461Z,4612
2018-08-21T16:19:13.664Z,4600
2018-08-21T16:20:13.484Z,4592
2018-08-21T16:21:13.715Z,4580
2018-08-21T16:22:13.462Z,4568
2018-08-21T16:23:15.429Z,4560
2018-08-21T16:24:13.249Z,4548
2018-08-21T16:25:14.020Z,4532
2018-08-21T16:26:13.229Z,4512
2018-08-21T16:27:13.682Z,4496
2018-08-21T16:28:13.517Z,4480
2018-08-21T16:29:13.514Z,4452
2018-08-21T16:30:13.422Z,4428
2018-08-21T16:31:13.263Z,4412
2018-08-21T16:32:13.045Z,4392
2018-08-21T16:33:14.227Z,4372
2018-08-21T16:34:13.551Z,4356
2018-08-21T16:35:13.381Z,4332
2018-08-21T16:36:13.337Z,4320
2018-08-21T16:37:13.296Z,4296
2018-08-21T16:38:13.294Z,4276
2018-08-21T16:39:14.910Z,4248
2018-08-21T16:40:14.067Z,4232
2018-08-21T16:41:13.886Z,4204
2018-08-21T16:42:13.576Z,4184
2018-08-21T16:43:13.819Z,4168
2018-08-21T16:44:13.917Z,4144
2018-08-21T16:45:13.781Z,4108
2018-08-21T16:46:13.117Z,4096
2018-08-21T16:47:13.337Z,4080
2018-08-21T16:48:13.622Z,4056
2018-08-21T16:49:13.855Z,4032
2018-08-21T16:50:13.603Z,4004
2018-08-21T16:51:13.931Z,3980
2018-08-21T16:52:13.631Z,3952
2018-08-21T16:53:13.972Z,3924
2018-08-21T16:54:14.074Z,3904
2018-08-21T16:55:13.473Z,3880
2018-08-21T16:56:13.150Z,3852
2018-08-21T16:57:13.461Z,3828
2018-08-21T16:58:13.410Z,3800
2018-08-21T16:59:13.676Z,3772
2018-08-21T17:00:13.978Z,3748
2018-08-21T17:01:14.368Z,3724
2018-08-21T17:02:13.692Z,3704
2018-08-21T17:03:13.693Z,3672
2018-08-21T17:04:13.675Z,3648
2018-08-21T17:05:13.614Z,3632
2018-08-21T17:06:13.684Z,3604
2018-08-21T17:07:13.712Z,3576
2018-08-21T17:08:13.717Z,3548
2018-08-21T17:09:14.777Z,3520
2018-08-21T17:10:14.012Z,3492
2018-08-21T17:11:13.499Z,3468
2018-08-21T17:12:13.787Z,3440
2018-08-21T17:13:13.727Z,3424
2018-08-21T17:14:13.803Z,3396
2018-08-21T17:15:14.008Z,3372
2018-08-21T17:16:13.746Z,3344
2018-08-21T17:17:13.556Z,3316
2018-08-21T17:18:13.764Z,3284
2018-08-21T17:19:13.759Z,3256
2018-08-21T17:20:13.956Z,3220
2018-08-21T17:21:13.779Z,3184
2018-08-21T17:22:14.043Z,3148
2018-08-21T17:23:13.787Z,3112
2018-08-21T17:24:14.092Z,3072
2018-08-21T17:25:14.071Z,3028
2018-08-21T17:26:14.058Z,2984
2018-08-21T17:27:13.538Z,2940
2018-08-21T17:28:13.849Z,2900
2018-08-21T17:29:14.069Z,2856
2018-08-21T17:30:14.122Z,2824
2018-08-21T17:31:14.107Z,2784
2018-08-21T17:32:14.077Z,2744
2018-08-21T17:33:13.897Z,2696
2018-08-21T17:34:13.591Z,2656
2018-08-21T17:35:14.255Z,2612
2018-08-21T17:36:14.106Z,2564
2018-08-21T17:37:13.604Z,2520
2018-08-21T17:38:14.131Z,2472
2018-08-21T17:39:13.858Z,2424
2018-08-21T17:40:14.168Z,2384
2018-08-21T17:41:13.618Z,2336
2018-08-21T17:42:13.882Z,2288
2018-08-21T17:43:14.137Z,2244
2018-08-21T17:44:13.692Z,2196
2018-08-21T17:45:13.968Z,2152
2018-08-21T17:46:14.146Z,2104
2018-08-21T17:47:13.647Z,2056
2018-08-21T17:48:13.391Z,2008
2018-08-21T17:49:14.184Z,1952
2018-08-21T17:50:13.682Z,1904
2018-08-21T17:51:14.181Z,1852
2018-08-21T17:52:13.933Z,1800
2018-08-21T17:53:14.193Z,1752
2018-08-21T17:54:16.058Z,1704
2018-08-21T17:55:14.200Z,1652
2018-08-21T17:56:13.687Z,1600
2018-08-21T17:57:14.202Z,1548
2018-08-21T17:58:13.961Z,1496
2018-08-21T17:59:14.240Z,1444
2018-08-21T18:00:13.711Z,1396
2018-08-21T18:01:13.713Z,1348
2018-08-21T18:02:13.725Z,1296
2018-08-21T18:03:14.248Z,1236
2018-08-21T18:04:14.250Z,1184
2018-08-21T18:05:13.992Z,1128
2018-08-21T18:06:13.999Z,1076
2018-08-21T18:07:14.278Z,1024
2018-08-21T18:17:46.098Z,536
2018-08-21T18:18:46.336Z,500
2018-08-21T18:19:46.565Z,468
2018-08-21T18:20:46.302Z,432
2018-08-21T18:21:46.623Z,400
2018-08-21T18:22:46.565Z,376
2018-08-21T18:23:46.611Z,344
2018-08-21T18:24:46.997Z,320
2018-08-21T18:25:46.858Z,296
2018-08-21T18:26:46.604Z,268
2018-08-21T18:27:46.836Z,244
2018-08-21T18:28:46.597Z,224
2018-08-21T18:29:46.622Z,208
2018-08-21T18:30:47.035Z,188
2018-08-21T18:31:46.591Z,172
2018-08-21T18:32:46.358Z,152
2018-08-21T18:33:46.870Z,140
2018-08-21T18:34:46.360Z,124
2018-08-21T18:35:46.871Z,112
2018-08-21T18:36:46.363Z,100
2018-08-21T18:37:46.630Z,88
2018-08-21T18:38:46.630Z,80
2018-08-21T18:39:46.642Z,68
2018-08-21T18:40:46.907Z,60
2018-08-21T18:41:46.408Z,52
2018-08-21T18:42:46.137Z,48
2018-08-21T18:43:47.166Z,40
2018-08-21T18:44:46.936Z,32
2018-08-21T18:45:46.922Z,28
2018-08-21T18:46:46.672Z,24
2018-08-21T18:47:46.698Z,24
2018-08-21T18:48:46.423Z,20
2018-08-21T18:49:46.693Z,16
2018-08-21T18:50:46.680Z,12
2018-08-21T18:51:46.182Z,12
2018-08-21T18:52:46.727Z,8
2018-08-21T18:53:46.950Z,8
2018-08-21T18:54:46.715Z,4
2018-08-21T18:55:46.973Z,4
2018-08-21T18:56:46.463Z,4
2018-08-21T18:57:46.972Z,4
2018-08-21T18:58:46.756Z,4
2018-08-21T18:59:46.981Z,4
2018-08-21T19:00:46.744Z,4
2018-08-21T19:01:47.002Z,0
2018-08-21T19:02:46.742Z,0
2018-08-21T19:03:46.489Z,4
2018-08-21T19:04:46.782Z,0
2018-08-21T19:05:46.761Z,0
2018-08-21T19:06:47.019Z,0
2018-08-21T19:07:46.761Z,0
2018-08-21T19:08:46.771Z,0
2018-08-21T19:09:46.781Z,0
2018-08-21T19:10:46.526Z,0
2018-08-21T19:11:46.783Z,0
2018-08-21T19:12:46.544Z,0
2018-08-21T19:13:46.279Z,0
2018-08-21T19:14:47.072Z,0
2018-08-21T19:15:47.048Z,0
2018-08-21T19:16:46.547Z,0